Pinto, Utah
Current Conditions -  °F | °C
As of 12:53 AM on Thursday 18 Dec 2014 (Local Time) from KCDC Reporting Station
Overcast Overcast  
Wind Chill: 29°   Ceiling: 4100
Heat Index: 33°   Visibility: 10mi
Dew Point: 31°   Wind: 5mph
Humidity: 92%   Direction: 250°WSW
Pressure: 30.06"   Gusts: NA
Location:  37.8476°N, 113.744°W
Report Text: KCDC 180753Z AUTO 25004KT 10SM OVC041 01/M01 A3006 RMK AO2 SNE02 SLP181 P0000 T00061006
Loading
Personal Weather Stations






























Interactive Weather Map New forecast layout! Learn more

10-Day Weather Forecast

Advertisements
Track Severe Weather on mobile